Terminal Aerodrome Forecast
Issued by NWS Denver/Boulder, CO

Home | Current Version | Previous Version | Text Only | Print | Product List | Glossary On
Versions: 1 2 3 4 5 6 7 8 9 10 11 12 13 14 15 16 17 18 19 20 21 22 23 24 25 26 27 28 29 30 31 32 33 34 35 36 37 38 39 40 41 42 43 44 45 46 47 48 49 50
000
FTUS45 KBOU 271200 AAA
TAFDEN
TAF AMD
KDEN 271200Z 2712/2818 18007KT P6SM SCT050 BKN120
     FM271500 34007KT P6SM FEW040 BKN100
     FM272000 36007KT P6SM SCT050 BKN090
      TEMPO 2720/2724 VRB20G30KT 5SM TSRA BKN060CB
     FM280000 06008KT P6SM VCTS SCT050CB BKN090
      TEMPO 2800/2804 VRB15G25KT -TSRA BKN050CB
     FM280400 35007KT P6SM VCTS SCT030CB BKN050
     FM280700 30007KT P6SM SCT050 BKN120=

USA.gov is the U.S. government's official web portal to all federal, state and local government web resources and services.